createdAt,value
2023-01-04T00:00:06.379Z,5.84
2023-01-04T00:05:09.986Z,6.14
2023-01-04T00:10:12.786Z,6.08
2023-01-04T00:15:16.954Z,5.97
2023-01-04T00:20:19.699Z,5.84
2023-01-04T00:25:22.448Z,5.79
2023-01-04T00:30:26.618Z,5.85
2023-01-04T00:35:45.357Z,5.81
2023-01-04T00:40:48.987Z,5.88
2023-01-04T00:45:53.717Z,5.72
2023-01-04T00:50:56.610Z,5.90
2023-01-04T00:56:02.500Z,5.91
2023-01-04T01:01:08.298Z,6.11
2023-01-04T01:06:12.267Z,5.97
2023-01-04T01:11:15.287Z,6.34
2023-01-04T01:16:44.388Z,6.44
2023-01-04T01:21:44.752Z,6.36
2023-01-04T01:26:47.627Z,6.46
2023-01-04T01:31:51.924Z,6.49
2023-01-04T01:36:54.821Z,6.61
2023-01-04T01:41:57.641Z,6.38
2023-01-04T01:47:02.422Z,6.50
2023-01-04T01:52:07.958Z,6.43
2023-01-04T01:57:15.161Z,6.32
2023-01-04T02:02:19.475Z,6.61
2023-01-04T02:07:25.734Z,6.68
2023-01-04T02:12:28.579Z,6.62
2023-01-04T02:17:39.746Z,6.68
2023-01-04T02:23:04.925Z,6.82
2023-01-04T02:28:17.616Z,6.36
2023-01-04T02:33:27.690Z,6.09
2023-01-04T02:38:39.172Z,5.93
2023-01-04T02:44:07.717Z,5.80
2023-01-04T02:49:29.438Z,5.90
2023-01-04T02:54:33.903Z,5.87
2023-01-04T02:59:51.659Z,5.64
2023-01-04T03:05:23.889Z,5.60
2023-01-04T03:10:36.930Z,5.50
2023-01-04T03:15:43.864Z,5.63
2023-01-04T03:20:50.473Z,5.48
2023-01-04T03:26:16.591Z,5.75
2023-01-04T03:31:41.965Z,5.49
2023-01-04T03:36:56.023Z,5.86
2023-01-04T03:42:23.036Z,5.64
2023-01-04T03:47:47.966Z,5.68
2023-01-04T03:52:54.490Z,5.91
2023-01-04T03:57:59.505Z,5.83
2023-01-04T04:03:08.148Z,6.25
2023-01-04T04:08:30.365Z,6.04
2023-01-04T04:13:33.166Z,6.10
2023-01-04T04:18:35.988Z,6.10
2023-01-04T04:23:40.098Z,6.29
2023-01-04T04:28:43.449Z,6.17
2023-01-04T04:33:46.231Z,6.46
2023-01-04T04:38:50.366Z,5.94
2023-01-04T04:43:53.765Z,6.47
2023-01-04T04:48:56.596Z,6.23
2023-01-04T04:54:01.115Z,6.35
2023-01-04T04:59:04.020Z,6.65
2023-01-04T05:04:07.368Z,6.38
2023-01-04T05:09:11.766Z,6.82
2023-01-04T05:14:14.952Z,6.54
2023-01-04T05:19:17.868Z,6.62
2023-01-04T05:24:22.115Z,6.52
2023-01-04T05:29:44.400Z,6.55
2023-01-04T05:34:47.125Z,6.34
2023-01-04T05:39:51.209Z,6.53
2023-01-04T05:44:54.727Z,6.45
2023-01-04T05:49:57.606Z,6.49
2023-01-04T05:55:02.074Z,6.78
2023-01-04T06:00:06.968Z,6.95
2023-01-04T06:05:15.766Z,7.03
2023-01-04T06:10:20.428Z,7.17
2023-01-04T06:15:23.238Z,6.88
2023-01-04T06:20:26.108Z,7.13
2023-01-04T06:25:30.217Z,7.49
2023-01-04T06:30:33.058Z,7.26
2023-01-04T06:35:36.065Z,7.52
2023-01-04T06:40:40.250Z,7.27
2023-01-04T06:45:43.563Z,7.44
2023-01-04T06:50:46.504Z,7.46
2023-01-04T06:55:50.676Z,7.56
2023-01-04T07:00:54.087Z,7.72
2023-01-04T07:05:56.840Z,7.42
2023-01-04T07:11:01.009Z,7.57
2023-01-04T07:16:03.800Z,7.93
2023-01-04T07:21:07.130Z,7.45
2023-01-04T07:26:11.231Z,7.70
2023-01-04T07:31:14.065Z,7.75
2023-01-04T07:36:16.860Z,7.93
2023-01-04T07:41:20.969Z,7.69
2023-01-04T07:46:23.786Z,7.85
2023-01-04T07:51:27.345Z,7.49
2023-01-04T07:56:31.475Z,7.32
2023-01-04T08:01:35.319Z,7.54
2023-01-04T08:06:39.863Z,7.77
2023-01-04T08:11:43.997Z,7.78
2023-01-04T08:16:46.800Z,7.47
2023-01-04T08:21:49.978Z,7.37
2023-01-04T08:26:54.218Z,7.20
2023-01-04T08:31:56.977Z,7.52
2023-01-04T08:36:59.799Z,7.54
2023-01-04T08:42:16.092Z,7.60
2023-01-04T08:47:23.474Z,7.54
2023-01-04T08:52:26.698Z,7.89
2023-01-04T08:57:30.804Z,7.68
2023-01-04T09:02:33.766Z,7.86
2023-01-04T09:07:36.719Z,7.87
2023-01-04T09:12:42.956Z,8.01
2023-01-04T09:18:05.128Z,8.04
2023-01-04T09:23:08.956Z,8.28
2023-01-04T09:28:13.142Z,7.77
2023-01-04T09:33:15.984Z,8.21
2023-01-04T09:38:18.727Z,7.91
2023-01-04T09:43:26.145Z,7.95
2023-01-04T09:48:32.799Z,8.09
2023-01-04T09:53:40.729Z,8.52
2023-01-04T09:58:45.364Z,7.94
2023-01-04T10:03:56.439Z,7.88
2023-01-04T10:09:03.705Z,7.90
2023-01-04T10:14:23.764Z,8.07
2023-01-04T10:25:18.763Z,7.91
2023-01-04T10:30:34.136Z,8.25
2023-01-04T10:35:37.098Z,8.05
2023-01-04T10:40:41.404Z,7.67
2023-01-04T10:45:55.061Z,8.00
2023-01-04T10:51:05.159Z,8.08
2023-01-04T10:56:25.751Z,7.91
2023-01-04T11:01:36.841Z,7.94
2023-01-04T11:06:44.515Z,7.95
2023-01-04T11:11:48.591Z,8.08
2023-01-04T11:16:56.554Z,8.28
2023-01-04T11:22:06.125Z,8.26
2023-01-04T11:27:20.875Z,8.22
2023-01-04T11:32:36.616Z,8.13
2023-01-04T11:37:41.559Z,8.00
2023-01-04T11:42:45.245Z,8.13
2023-01-04T11:47:52.165Z,8.13
2023-01-04T11:52:55.078Z,8.11
2023-01-04T11:58:08.004Z,8.35
2023-01-04T12:03:18.367Z,8.17
2023-01-04T12:11:34.755Z,8.13
2023-01-04T12:16:47.315Z,8.23
2023-01-04T12:21:52.525Z,8.69
2023-01-04T12:26:57.351Z,8.39
2023-01-04T12:32:33.281Z,8.38
2023-01-04T12:37:49.770Z,8.34
2023-01-04T12:43:24.644Z,8.67
2023-01-04T12:49:02.884Z,8.66
2023-01-04T12:54:06.530Z,8.64
2023-01-04T12:59:29.657Z,8.60
2023-01-04T13:04:41.318Z,8.72
2023-01-04T13:09:51.724Z,8.80
2023-01-04T13:15:04.121Z,8.80
2023-01-04T13:20:20.439Z,8.83
2023-01-04T13:25:25.286Z,8.77
2023-01-04T13:30:38.468Z,8.98
2023-01-04T13:35:41.306Z,9.03
2023-01-04T13:40:49.449Z,9.12
2023-01-04T13:46:06.898Z,8.85
2023-01-04T13:51:15.933Z,9.10
2023-01-04T13:56:21.620Z,9.08
2023-01-04T14:01:28.795Z,9.09
2023-01-04T14:06:34.174Z,8.94
2023-01-04T14:12:09.908Z,9.15
2023-01-04T14:17:23.241Z,9.31
2023-01-04T14:22:42.907Z,9.19
2023-01-04T14:27:45.801Z,9.16
2023-01-04T14:32:57.371Z,9.26
2023-01-04T14:38:04.453Z,9.39
2023-01-04T14:43:35.918Z,9.41
2023-01-04T14:48:40.203Z,9.39
2023-01-04T14:53:43.143Z,9.59
2023-01-04T14:58:46.337Z,9.77
2023-01-04T15:03:50.600Z,9.63
2023-01-04T15:08:53.466Z,9.87
2023-01-04T15:13:56.585Z,9.89
2023-01-04T15:19:00.851Z,9.83
2023-01-04T15:24:03.695Z,9.82
2023-01-04T15:29:08.367Z,9.79
2023-01-04T15:34:14.704Z,9.88
2023-01-04T15:39:17.566Z,9.82
2023-01-04T15:44:20.460Z,9.64
2023-01-04T15:49:24.705Z,9.78
2023-01-04T15:54:28.246Z,9.90
2023-01-04T15:59:31.235Z,10.00
2023-01-04T16:04:36.480Z,9.89
2023-01-04T16:09:39.345Z,10.06
2023-01-04T16:14:42.118Z,9.83
2023-01-04T16:19:46.423Z,9.86
2023-01-04T16:30:14.957Z,9.86
2023-01-04T16:35:19.341Z,9.91
2023-01-04T16:40:22.125Z,10.05
2023-01-04T16:45:24.892Z,10.13
2023-01-04T16:50:29.065Z,10.15
2023-01-04T16:55:31.957Z,10.16
2023-01-04T17:00:34.845Z,10.35
2023-01-04T17:05:41.436Z,10.15
2023-01-04T17:10:44.506Z,10.27
2023-01-04T17:15:47.283Z,10.32
2023-01-04T17:21:06.091Z,10.28
2023-01-04T17:26:20.623Z,10.21
2023-01-04T17:31:25.187Z,10.35
2023-01-04T17:36:29.714Z,10.32
2023-01-04T17:41:32.814Z,10.27
2023-01-04T17:46:39.022Z,10.47
2023-01-04T17:51:43.223Z,10.46
2023-01-04T17:56:46.062Z,10.54
2023-01-04T18:01:49.136Z,10.24
2023-01-04T18:06:53.393Z,10.56
2023-01-04T18:11:56.189Z,10.58
2023-01-04T18:16:59.328Z,10.71
2023-01-04T18:22:04.757Z,10.42
2023-01-04T18:27:25.254Z,10.42
2023-01-04T18:32:28.860Z,10.30
2023-01-04T18:37:33.028Z,10.32
2023-01-04T18:42:35.891Z,10.68
2023-01-04T18:47:38.659Z,10.68
2023-01-04T18:52:42.829Z,10.57
2023-01-04T18:57:45.604Z,10.74
2023-01-04T19:02:48.557Z,10.45
2023-01-04T19:07:52.909Z,10.54
2023-01-04T19:12:55.650Z,10.51
2023-01-04T19:17:58.422Z,10.30
2023-01-04T19:23:02.571Z,10.46
2023-01-04T19:28:06.407Z,10.23
2023-01-04T19:33:10.846Z,10.00
2023-01-04T19:38:16.396Z,9.15
2023-01-04T19:43:19.166Z,8.84
2023-01-04T19:48:23.659Z,8.04
2023-01-04T19:53:27.843Z,8.58
2023-01-04T19:58:31.077Z,8.23
2023-01-04T20:03:34.450Z,8.54
2023-01-04T20:08:39.114Z,8.51
2023-01-04T20:13:42.129Z,8.16
2023-01-04T20:18:44.925Z,8.58
2023-01-04T20:23:49.112Z,8.56
2023-01-04T20:28:52.037Z,8.33
2023-01-04T20:33:56.676Z,8.00
2023-01-04T20:39:02.924Z,7.42
2023-01-04T20:44:06.050Z,7.27
2023-01-04T20:49:09.568Z,7.84
2023-01-04T20:54:13.783Z,8.07
2023-01-04T20:59:16.572Z,8.30
2023-01-04T21:04:19.342Z,8.24
2023-01-04T21:09:23.528Z,8.58
2023-01-04T21:14:26.392Z,8.69
2023-01-04T21:19:29.320Z,8.59
2023-01-04T21:24:34.493Z,8.79
2023-01-04T21:29:37.393Z,8.82
2023-01-04T21:34:40.240Z,8.76
2023-01-04T21:39:44.612Z,9.05
2023-01-04T21:44:47.440Z,9.04
2023-01-04T21:49:50.844Z,9.09
2023-01-04T21:54:55.394Z,9.19
2023-01-04T21:59:58.157Z,9.13
2023-01-04T22:05:01.769Z,8.98
2023-01-04T22:10:06.766Z,9.21
2023-01-04T22:15:10.404Z,8.64
2023-01-04T22:20:13.157Z,8.64
2023-01-04T22:25:17.476Z,8.66
2023-01-04T22:30:20.265Z,8.57
2023-01-04T22:35:23.442Z,8.71
2023-01-04T22:40:27.584Z,8.99
2023-01-04T22:45:30.581Z,8.71
2023-01-04T22:50:33.329Z,8.52
2023-01-04T22:56:17.111Z,7.94
2023-01-04T23:01:04.907Z,8.06
2023-01-04T23:06:08.465Z,8.54
2023-01-04T23:11:15.653Z,8.56
2023-01-04T23:16:18.777Z,8.23
2023-01-04T23:21:21.571Z,8.17
2023-01-04T23:26:27.364Z,8.36
2023-01-04T23:31:32.760Z,8.06
2023-01-04T23:36:37.283Z,8.04
2023-01-04T23:41:47.991Z,7.93
2023-01-04T23:46:53.564Z,8.05
2023-01-04T23:51:57.555Z,8.44
2023-01-04T23:57:03.776Z,8.42
